Inwood, Vermont
Current Conditions -  °F | °C
As of 10:55 AM on Sunday 23 Nov 2014 (Local Time) from KCDA Reporting Station
Haze Haze  
Wind Chill: 38°   Ceiling: 1800
Heat Index: 38°   Visibility: 3mi
Dew Point: 36°   Wind: 0mph
Humidity: 93%   Direction: NA
Pressure: 30.06"   Gusts: NA
Location:  44.3148°N, 72.091°W
Report Text: KCDA 231555Z AUTO 00000KT 3SM BR OVC018 03/02 A3006 RMK AO2 T00310020
Loading
Personal Weather Stations






























Interactive Weather Map New forecast layout! Learn more

10-Day Weather Forecast

Advertisements
Track Severe Weather on mobile